This is the latest recevied weather packets stored in our database for station/object E23XBQ-1. If no packets are shown the sender has not sent any weather packets the latest 10 day(s).
| Time | Temp. | Humidity | Pressure | Rain* | Wind** | Luminosity | Snow |
|---|---|---|---|---|---|---|---|
| 1778042919 | 36.67° C | 38% | 972 hPa | - | - | 0 W/m² | - |
| 1778042295 | 36.11° C | 43% | 972 hPa | - | - | 0 W/m² | - |
| 1778041670 | 36.11° C | 41% | 972 hPa | - | - | 0 W/m² | - |
| 1778041046 | 36.11° C | 43% | 972 hPa | - | - | 0 W/m² | - |
| 1778040421 | 35.56° C | 44% | 972 hPa | - | - | 0 W/m² | - |
| 1778039796 | 35.56° C | 47% | 972 hPa | - | - | 0 W/m² | - |
| 1778039171 | 35.56° C | 46% | 972 hPa | - | - | 0 W/m² | - |
| 1778038546 | 35° C | 47% | 973 hPa | - | - | 0 W/m² | - |
| 1778037921 | 33.89° C | 50% | 973 hPa | - | - | 0 W/m² | - |
| 1778037297 | 34.44° C | 50% | 973 hPa | - | - | 0 W/m² | - |
| 1778036672 | 33.89° C | 51% | 973 hPa | - | - | 0 W/m² | - |
| 1778036048 | 33.33° C | 55% | 973 hPa | - | - | 0 W/m² | - |
| 1778035423 | 33.89° C | 58% | 973 hPa | - | - | 0 W/m² | - |
| 1778034799 | 33.33° C | 56% | 973 hPa | - | - | 0 W/m² | - |
| 1778034174 | 33.33° C | 56% | 973 hPa | - | - | 0 W/m² | - |
| 1778033550 | 32.22° C | 58% | 973 hPa | - | - | 0 W/m² | - |
| 1778032925 | 31.67° C | 66% | 973 hPa | - | - | 0 W/m² | - |
| 1778032301 | 31.67° C | 64% | 973 hPa | - | - | 0 W/m² | - |
| 1778031676 | 31.11° C | 68% | 973 hPa | - | - | 0 W/m² | - |
| 1778031051 | 30° C | 73% | 973 hPa | - | - | 0 W/m² | - |
| 1778030426 | 29.44° C | 77% | 973 hPa | - | - | 0 W/m² | - |
| 1778029801 | 28.89° C | 79% | 973 hPa | - | - | 0 W/m² | - |
| 1778029177 | 28.89° C | 80% | 973 hPa | - | - | 0 W/m² | - |
| 1778028552 | 27.78° C | 86% | 973 hPa | - | - | 0 W/m² | - |
| 1778027926 | 28.33° C | 84% | 973 hPa | - | - | 0 W/m² | - |
* Rain since midnight (hover to see other rain measurements)
** Current wind speed in m/s (hover to see current wind gust speed)